Time;durP1;ratioP1;P1;durP2;ratioP2;P2;SDS_P1;SDS_P2;PMS_P1;PMS_P2;Temp;Humidity;BMP_temperature;BMP_pressure;BME280_temperature;BME280_humidity;BME280_pressure;Samples;Min_cycle;Max_cycle;Signal;HPM_P1;HPM_P2
2021/03/19 00:00:54;;;;;;;1.30;1.30;;;;;;;-1.49;61.14;102686.25;6338901;28;20209;-77
2021/03/19 00:04:03;;;;;;;3.80;1.50;;;;;;;-1.82;61.21;102645.50;6339834;28;20274;-78
2021/03/19 00:07:08;;;;;;;2.33;1.37;;;;;;;-1.91;61.02;102619.31;6338648;28;20377;-79
2021/03/19 00:10:13;;;;;;;1.30;1.30;;;;;;;-1.63;61.60;102683.59;6340533;28;20480;-79
2021/03/19 00:13:16;;;;;;;1.10;1.10;;;;;;;-1.70;62.14;102698.31;6338262;28;20237;-79
2021/03/19 00:16:19;;;;;;;2.13;1.17;;;;;;;-1.68;62.00;102712.44;6340084;28;20248;-79
2021/03/19 00:19:24;;;;;;;2.40;1.50;;;;;;;-1.70;61.90;102716.16;6339632;28;20379;-78
2021/03/19 00:22:28;;;;;;;1.57;1.40;;;;;;;-1.74;62.76;102710.13;6339418;28;20534;-78
2021/03/19 00:25:31;;;;;;;1.20;1.20;;;;;;;-1.69;62.62;102715.19;6339489;28;20185;-78
2021/03/19 00:28:35;;;;;;;1.30;1.30;;;;;;;-1.67;62.79;102719.50;6337703;28;20216;-78
2021/03/19 00:31:38;;;;;;;2.97;1.30;;;;;;;-1.61;62.49;102723.63;6338438;28;20185;-78
2021/03/19 00:34:41;;;;;;;3.13;1.37;;;;;;;-1.61;62.73;102724.50;6339000;28;20195;-78
2021/03/19 00:37:46;;;;;;;1.40;1.40;;;;;;;-1.64;62.81;102719.31;6337550;28;20186;-78
2021/03/19 00:40:50;;;;;;;1.67;1.17;;;;;;;-1.64;63.31;102730.03;6337655;28;20350;-77
2021/03/19 00:43:53;;;;;;;1.13;1.13;;;;;;;-1.61;63.85;102729.84;6338088;28;20240;-77
2021/03/19 00:46:56;;;;;;;1.70;1.60;;;;;;;-1.51;63.25;102736.38;6338489;28;20523;-79
2021/03/19 00:50:00;;;;;;;1.40;1.30;;;;;;;-1.55;63.86;102734.84;6338184;28;20212;-78
2021/03/19 00:53:06;;;;;;;1.33;1.33;;;;;;;-1.54;63.24;102741.91;6338681;28;20186;-78
2021/03/19 00:56:14;;;;;;;5.13;1.40;;;;;;;-1.64;63.37;102737.19;6337569;28;20218;-78
2021/03/19 00:59:17;;;;;;;1.40;1.40;;;;;;;-1.52;62.72;102745.38;6338026;28;20221;-78
2021/03/19 01:02:20;;;;;;;3.63;1.53;;;;;;;-1.71;62.91;102728.69;6338628;28;20190;-78
2021/03/19 01:05:26;;;;;;;3.40;1.40;;;;;;;-1.58;62.45;102742.19;6336640;28;20469;-78
2021/03/19 01:08:30;;;;;;;2.20;1.43;;;;;;;-1.58;63.44;102745.72;6337542;28;20245;-78
2021/03/19 01:11:34;;;;;;;1.37;1.30;;;;;;;-1.48;62.27;102746.91;6340730;28;20378;-78
2021/03/19 01:14:38;;;;;;;1.93;1.37;;;;;;;-1.48;62.53;102746.91;6342273;28;20193;-78
2021/03/19 01:17:41;;;;;;;1.43;1.40;;;;;;;-1.52;63.61;102755.22;6343809;28;20559;-78
2021/03/19 01:20:46;;;;;;;4.57;1.67;;;;;;;-1.40;63.48;102739.25;6341951;28;20477;-78
2021/03/19 01:23:50;;;;;;;1.90;1.23;;;;;;;-1.50;63.61;102750.63;6344368;28;20224;-78
2021/03/19 01:29:56;;;;;;;1.20;1.20;;;;;;;-1.68;64.22;102760.63;6342050;28;20193;-77
2021/03/19 01:32:59;;;;;;;1.30;1.30;;;;;;;-1.68;63.36;102760.63;6341462;28;20225;-77
2021/03/19 01:36:05;;;;;;;1.30;1.20;;;;;;;-1.74;63.44;102752.94;6343455;28;20213;-78
2021/03/19 01:39:09;;;;;;;3.70;1.50;;;;;;;-1.67;62.67;102762.31;6341406;28;20253;-77
2021/03/19 01:42:14;;;;;;;1.40;1.30;;;;;;;-1.71;62.06;102749.22;6341148;28;20285;-77
2021/03/19 01:46:08;;;;;;;2.50;1.60;;;;;;;-1.63;61.66;102753.19;6340035;28;20494;-77
2021/03/19 01:49:50;;;;;;;4.00;1.40;;;;;;;-1.74;60.59;102755.63;6340925;28;20186;-77
2021/03/19 01:53:55;;;;;;;2.00;1.40;;;;;;;-1.73;61.19;102757.38;6339946;28;20511;-79
2021/03/19 01:57:36;;;;;;;1.90;1.30;;;;;;;-1.75;60.81;102763.75;6344305;28;20238;-78
2021/03/19 02:01:16;;;;;;;4.87;1.57;;;;;;;-1.66;60.75;102760.53;6344051;28;20213;-78
2021/03/19 02:04:57;;;;;;;1.60;1.50;;;;;;;-1.86;60.43;102760.84;6340226;23;20531;-75
2021/03/19 02:08:41;;;;;;;2.40;1.20;;;;;;;-1.78;60.16;102769.28;6314640;28;20186;-75
2021/03/19 02:12:21;;;;;;;1.70;1.60;;;;;;;-1.91;59.77;102763.81;6314570;28;20213;-75
2021/03/19 02:16:02;;;;;;;3.37;1.40;;;;;;;-1.71;59.87;102782.22;6315513;28;20245;-75
2021/03/19 02:19:57;;;;;;;4.83;1.30;;;;;;;-1.77;59.78;102771.84;6313332;28;20365;-75
2021/03/19 02:23:34;;;;;;;2.20;1.43;;;;;;;-1.86;59.61;102777.78;6212493;28;20204;-75
2021/03/19 02:27:14;;;;;;;1.70;1.47;;;;;;;-1.88;59.02;102771.66;6205705;28;20217;-75
2021/03/19 02:30:55;;;;;;;1.23;1.23;;;;;;;-1.88;59.36;102779.69;6314175;28;20187;-75
2021/03/19 02:34:01;;;;;;;2.50;1.57;;;;;;;-1.88;59.54;102785.03;6324446;28;20195;-75
2021/03/19 02:37:07;;;;;;;2.27;1.20;;;;;;;-1.92;59.28;102789.69;6294674;28;20446;-75
2021/03/19 02:40:17;;;;;;;1.53;1.50;;;;;;;-1.90;60.38;102786.94;6313234;28;20231;-75
2021/03/19 02:43:22;;;;;;;1.80;1.10;;;;;;;-1.93;59.15;102768.38;6313909;28;20358;-75
2021/03/19 02:46:25;;;;;;;1.40;1.40;;;;;;;-1.95;58.32;102762.25;6312528;28;20243;-75
2021/03/19 02:49:31;;;;;;;3.63;1.40;;;;;;;-1.91;58.83;102790.56;6312243;28;20366;-75
2021/03/19 02:52:52;;;;;;;1.53;1.40;;;;;;;-1.90;59.24;102781.59;6312786;28;20379;-75
2021/03/19 02:55:57;;;;;;;1.30;1.30;;;;;;;-1.81;58.80;102781.03;6294685;28;20226;-75
2021/03/19 02:59:00;;;;;;;1.93;1.33;;;;;;;-1.90;59.09;102773.56;6313782;28;20224;-76
2021/03/19 03:02:04;;;;;;;2.37;1.50;;;;;;;-1.94;58.88;102763.97;6313024;28;20192;-76
2021/03/19 03:05:11;;;;;;;2.50;1.67;;;;;;;-1.92;59.10;102789.69;6311668;28;20237;-75
2021/03/19 03:08:18;;;;;;;1.40;1.30;;;;;;;-1.98;58.79;102786.53;6311757;28;20529;-75
2021/03/19 03:11:21;;;;;;;1.47;1.33;;;;;;;-1.94;59.25;102785.38;6294497;28;20202;-76
2021/03/19 03:14:26;;;;;;;2.63;1.30;;;;;;;-1.96;58.85;102792.63;6312847;28;20236;-76
2021/03/19 03:17:30;;;;;;;3.27;1.40;;;;;;;-1.96;59.55;102792.63;6312875;28;20216;-75
2021/03/19 03:20:38;;;;;;;4.00;1.60;;;;;;;-1.88;58.85;102801.09;6312236;28;20433;-76
2021/03/19 03:23:43;;;;;;;4.63;1.60;;;;;;;-1.84;58.78;102791.91;6313266;28;20189;-75
2021/03/19 03:26:47;;;;;;;4.83;1.50;;;;;;;-1.89;58.70;102802.03;6311869;28;20414;-75
2021/03/19 03:29:50;;;;;;;2.67;1.63;;;;;;;-1.84;59.85;102812.44;6312076;28;20249;-76
2021/03/19 03:32:54;;;;;;;2.37;1.30;;;;;;;-2.00;59.75;102791.06;6311418;28;20186;-75
2021/03/19 03:35:59;;;;;;;1.73;1.60;;;;;;;-1.88;60.06;102808.25;6312300;28;20277;-75
2021/03/19 03:39:06;;;;;;;2.30;1.27;;;;;;;-1.95;59.41;102815.75;6325410;28;20211;-74
2021/03/19 03:42:10;;;;;;;1.70;1.60;;;;;;;-1.91;59.24;102814.63;6312924;28;20278;-76
2021/03/19 03:45:14;;;;;;;1.57;1.47;;;;;;;-2.26;60.20;102751.63;6312004;28;20186;-75
2021/03/19 03:48:24;;;;;;;1.40;1.40;;;;;;;-1.87;59.70;102807.31;6312019;28;20235;-75
2021/03/19 03:51:29;;;;;;;1.50;1.50;;;;;;;-1.96;61.22;102814.03;6310916;28;20192;-75
2021/03/19 03:54:32;;;;;;;4.23;1.60;;;;;;;-1.97;60.21;102812.31;6311026;28;20464;-74
2021/03/19 03:57:37;;;;;;;1.40;1.30;;;;;;;-1.99;61.14;102803.50;6311078;28;20209;-77
2021/03/19 04:00:42;;;;;;;2.53;1.43;;;;;;;-1.91;60.73;102806.59;6312062;28;20185;-75
2021/03/19 04:03:46;;;;;;;1.40;1.30;;;;;;;-1.95;60.64;102810.41;6311243;28;20237;-75
2021/03/19 04:06:50;;;;;;;2.60;1.43;;;;;;;-1.87;61.05;102815.34;6311585;28;20193;-75
2021/03/19 04:09:53;;;;;;;4.10;1.33;;;;;;;-1.89;60.06;102823.44;6311421;28;20186;-75
2021/03/19 04:12:57;;;;;;;1.43;1.33;;;;;;;-1.92;60.39;102820.94;6311515;28;20218;-75
2021/03/19 04:16:00;;;;;;;3.37;1.30;;;;;;;-2.04;60.10;102832.34;6311494;28;20214;-75
2021/03/19 04:19:04;;;;;;;1.80;1.53;;;;;;;-2.05;60.93;102841.31;6311227;28;20254;-76
2021/03/19 04:22:10;;;;;;;1.57;1.57;;;;;;;-1.90;60.24;102856.50;6293730;28;20200;-75
2021/03/19 04:25:15;;;;;;;2.10;1.43;;;;;;;-2.00;60.38;102860.63;6310582;28;20278;-75
2021/03/19 04:28:21;;;;;;;1.23;1.20;;;;;;;-2.00;61.58;102865.97;6310474;28;20201;-75
2021/03/19 04:31:25;;;;;;;5.27;1.60;;;;;;;-2.15;60.91;102849.00;6310437;28;20483;-75
2021/03/19 04:34:30;;;;;;;3.30;1.60;;;;;;;-1.95;60.45;102864.78;6311394;28;20190;-75
2021/03/19 04:37:34;;;;;;;2.33;1.40;;;;;;;-1.95;60.75;102869.25;6310362;28;20435;-75
2021/03/19 04:40:41;;;;;;;3.53;1.33;;;;;;;-2.02;60.79;102882.13;6310384;28;20193;-75
2021/03/19 04:43:45;;;;;;;4.07;1.43;;;;;;;-1.99;61.49;102894.47;6311114;28;20186;-75
2021/03/19 04:46:48;;;;;;;1.57;1.50;;;;;;;-1.95;61.31;102890.66;6318258;28;20188;-75
2021/03/19 04:49:52;;;;;;;1.50;1.50;;;;;;;-2.04;61.01;102893.88;6325482;28;20254;-75
2021/03/19 04:52:56;;;;;;;2.20;1.50;;;;;;;-2.08;61.87;102884.31;6314928;28;20476;-75
2021/03/19 04:56:00;;;;;;;3.27;1.20;;;;;;;-2.09;62.33;102877.22;6315208;28;20253;-75
2021/03/19 04:59:04;;;;;;;2.30;1.47;;;;;;;-2.05;61.68;102889.44;6316344;28;20248;-75
2021/03/19 05:02:10;;;;;;;1.87;1.40;;;;;;;-2.20;62.67;102890.31;6316016;28;20186;-75
2021/03/19 05:05:20;;;;;;;3.47;1.30;;;;;;;-2.23;62.59;102866.41;6288843;28;20464;-75
2021/03/19 05:08:26;;;;;;;2.80;1.30;;;;;;;-2.16;62.04;102887.41;6290824;28;20280;-75
2021/03/19 05:11:30;;;;;;;2.47;1.50;;;;;;;-2.05;62.98;102894.81;6291281;28;20251;-76
2021/03/19 05:14:33;;;;;;;2.60;1.47;;;;;;;-2.11;62.83;102885.34;6290502;28;20186;-75
2021/03/19 05:17:37;;;;;;;1.93;1.27;;;;;;;-2.04;62.44;102892.06;6289191;28;20220;-76
2021/03/19 05:20:41;;;;;;;4.90;1.50;;;;;;;-1.98;62.16;102898.88;6289657;28;20441;-75
2021/03/19 05:23:45;;;;;;;1.80;1.70;;;;;;;-1.99;61.82;102897.13;6289776;28;20226;-75
2021/03/19 05:26:48;;;;;;;3.37;1.30;;;;;;;-1.96;61.26;102905.00;6289128;28;20495;-75
2021/03/19 05:29:54;;;;;;;6.40;1.80;;;;;;;-2.08;62.36;102895.84;6289919;28;20225;-75
2021/03/19 05:32:57;;;;;;;1.27;1.27;;;;;;;-1.96;61.79;102899.66;6289435;28;20258;-75
2021/03/19 05:36:01;;;;;;;4.17;1.60;;;;;;;-2.13;62.37;102897.06;6288943;28;20539;-76
2021/03/19 05:39:09;;;;;;;2.60;1.60;;;;;;;-2.12;62.79;102899.66;6288910;28;20361;-75
2021/03/19 05:42:16;;;;;;;2.10;1.60;;;;;;;-1.95;62.65;102912.06;6289600;28;20188;-76
2021/03/19 05:45:25;;;;;;;3.40;1.73;;;;;;;-2.12;62.19;102869.34;6289607;28;20187;-76
2021/03/19 05:48:39;;;;;;;3.27;1.50;;;;;;;-1.85;62.53;102907.94;6288245;28;20213;-75
2021/03/19 05:51:46;;;;;;;2.93;1.60;;;;;;;-1.94;62.54;102908.44;6289639;28;20192;-75
2021/03/19 05:55:15;;;;;;;3.70;1.50;;;;;;;-1.93;61.97;102907.50;6295330;28;20249;-74
2021/03/19 05:58:26;;;;;;;6.73;1.50;;;;;;;-1.98;62.51;102912.25;6295031;28;20300;-75
2021/03/19 06:01:30;;;;;;;3.90;1.57;;;;;;;-1.86;62.36;102916.03;6288440;28;20382;-75
2021/03/19 06:04:34;;;;;;;3.47;1.30;;;;;;;-1.99;62.70;102921.22;6303016;28;20414;-75
2021/03/19 06:07:44;;;;;;;4.47;1.53;;;;;;;-1.86;61.73;102916.91;6313883;28;20292;-76
2021/03/19 06:10:48;;;;;;;8.23;1.47;;;;;;;-1.90;61.62;102926.06;6313509;28;20223;-75
2021/03/19 06:13:57;;;;;;;3.23;1.70;;;;;;;-1.93;61.92;102931.59;6313044;28;20224;-77
2021/03/19 06:17:10;;;;;;;1.60;1.60;;;;;;;-1.74;61.11;102926.03;6314114;28;20277;-75
2021/03/19 06:20:18;;;;;;;7.30;1.47;;;;;;;-1.84;60.82;102936.41;6313950;28;20187;-75
2021/03/19 06:23:23;;;;;;;2.50;1.33;;;;;;;-2.00;60.91;102904.28;6312600;28;20374;-76
2021/03/19 06:26:32;;;;;;;5.30;1.80;;;;;;;-1.69;60.35;102932.84;6313419;28;20187;-75
2021/03/19 06:29:45;;;;;;;1.50;1.40;;;;;;;-1.56;60.60;102925.84;6313793;28;20187;-75
2021/03/19 06:33:05;;;;;;;1.60;1.23;;;;;;;-1.57;59.62;102937.53;6312667;28;20199;-75
2021/03/19 06:36:18;;;;;;;5.80;1.40;;;;;;;-1.86;59.34;102895.50;6313059;28;20282;-75
2021/03/19 06:39:24;;;;;;;2.00;1.60;;;;;;;-1.51;58.86;102934.47;6312238;28;20248;-74
2021/03/19 06:42:33;;;;;;;2.40;1.53;;;;;;;-1.49;58.72;102921.88;6312408;28;20187;-75
2021/03/19 06:45:37;;;;;;;5.33;1.77;;;;;;;-1.46;59.82;102926.19;6313063;28;20225;-75
2021/03/19 06:48:42;;;;;;;6.53;1.60;;;;;;;-1.30;58.64;102935.91;6312931;28;20237;-75
2021/03/19 06:51:49;;;;;;;5.43;1.43;;;;;;;-1.36;58.06;102933.59;6311934;28;20255;-75
2021/03/19 06:54:54;;;;;;;4.30;1.80;;;;;;;-1.30;58.46;102938.59;6312796;28;20247;-75
2021/03/19 06:57:58;;;;;;;2.03;1.53;;;;;;;-1.14;57.95;102943.06;6311992;28;20218;-75
2021/03/19 07:01:04;;;;;;;4.20;1.50;;;;;;;-1.37;57.17;102893.53;6313122;28;20215;-75
2021/03/19 07:04:47;;;;;;;2.10;1.43;;;;;;;-1.06;57.53;102935.44;6323987;28;20276;-76
2021/03/19 07:08:02;;;;;;;5.03;1.60;;;;;;;-1.11;56.62;102916.09;6310702;28;20195;-75
2021/03/19 07:11:26;;;;;;;4.40;1.93;;;;;;;-0.92;56.91;102928.28;6312259;28;20222;-76
2021/03/19 07:14:43;;;;;;;4.37;1.50;;;;;;;-0.91;56.33;102929.16;6312321;28;20187;-75
2021/03/19 07:17:52;;;;;;;5.07;1.33;;;;;;;-0.93;55.35;102936.41;6311315;28;20568;-75
2021/03/19 07:21:19;;;;;;;2.00;1.50;;;;;;;-0.90;56.38;102936.25;6312168;28;20194;-75
2021/03/19 07:24:49;;;;;;;4.10;1.30;;;;;;;-0.77;55.60;102937.22;6262411;28;20197;-75
2021/03/19 07:28:25;;;;;;;2.73;1.30;;;;;;;-0.76;54.49;102930.88;6311088;28;20470;-75
2021/03/19 07:32:03;;;;;;;1.73;1.60;;;;;;;-0.73;53.28;102944.13;6311658;28;20184;-75
2021/03/19 07:35:37;;;;;;;8.53;1.63;;;;;;;-0.76;52.99;102960.38;6312669;28;20264;-75
2021/03/19 07:38:57;;;;;;;1.40;1.40;;;;;;;-1.01;53.18;102912.78;6312247;28;20223;-75
2021/03/19 07:42:12;;;;;;;6.47;1.20;;;;;;;-0.79;52.79;102957.88;6310452;28;20498;-75
2021/03/19 07:45:22;;;;;;;2.00;1.27;;;;;;;-0.69;51.87;102945.63;6310567;28;20525;-75
2021/03/19 07:48:42;;;;;;;4.00;1.20;;;;;;;-0.67;51.89;102955.31;6311428;28;20195;-75
2021/03/19 07:52:00;;;;;;;7.33;1.23;;;;;;;-0.66;52.03;102961.53;6311600;28;20267;-74
2021/03/19 07:55:12;;;;;;;3.23;1.70;;;;;;;-0.69;51.52;102961.72;6311642;28;20191;-76
2021/03/19 07:58:33;;;;;;;4.97;1.17;;;;;;;-0.63;51.30;102951.50;6310765;28;20218;-75
2021/03/19 08:01:41;;;;;;;5.53;1.63;;;;;;;-0.54;50.86;102944.72;6293125;28;20611;-75
2021/03/19 08:04:59;;;;;;;3.10;1.40;;;;;;;-0.50;50.13;102956.97;6310299;28;20262;-75
2021/03/19 08:08:15;;;;;;;3.17;1.47;;;;;;;-0.44;51.01;102940.53;6310995;28;20286;-75
2021/03/19 08:11:23;;;;;;;8.97;1.37;;;;;;;-0.27;50.37;102958.22;6322535;28;20216;-75
2021/03/19 08:14:46;;;;;;;2.30;1.10;;;;;;;-0.30;49.31;102959.28;6315475;28;20215;-75
2021/03/19 08:18:01;;;;;;;1.63;1.37;;;;;;;-0.24;49.49;102958.91;6313097;28;20280;-75
2021/03/19 08:21:23;;;;;;;1.10;1.10;;;;;;;-0.22;48.29;102973.09;6319309;28;20195;-75
2021/03/19 08:24:44;;;;;;;1.30;1.30;;;;;;;-0.07;48.26;102966.75;6317161;28;20187;-76
2021/03/19 08:27:54;;;;;;;5.63;1.30;;;;;;;-0.04;48.18;102961.19;6315294;28;20225;-75
2021/03/19 08:31:08;;;;;;;4.93;1.40;;;;;;;0.17;47.91;102966.16;6316219;28;20184;-76
2021/03/19 08:34:23;;;;;;;8.33;1.40;;;;;;;0.16;46.82;102935.75;6316212;28;20205;-75
2021/03/19 08:37:39;;;;;;;2.67;1.30;;;;;;;0.03;46.61;102913.34;6314911;28;20525;-74
2021/03/19 08:40:47;;;;;;;1.70;1.20;;;;;;;0.10;46.40;102951.41;6314876;28;20206;-76
2021/03/19 08:43:53;;;;;;;1.53;1.00;;;;;;;0.16;46.78;102943.81;6289884;28;20527;-75
2021/03/19 08:47:02;;;;;;;2.67;1.30;;;;;;;0.17;47.84;102966.16;6290843;28;20197;-76
2021/03/19 08:50:21;;;;;;;1.47;1.30;;;;;;;0.10;47.46;102972.88;6315545;28;20193;-75
2021/03/19 08:53:25;;;;;;;1.30;1.30;;;;;;;-0.04;47.31;102945.09;6315915;28;20191;-75
2021/03/19 08:56:31;;;;;;;4.10;1.13;;;;;;;0.06;44.33;102971.34;6315866;28;20241;-76
2021/03/19 08:59:52;;;;;;;1.20;1.10;;;;;;;-0.09;43.95;102974.03;6315615;28;20219;-75
2021/03/19 09:02:59;;;;;;;3.77;1.00;;;;;;;-0.02;43.41;102963.78;6314112;28;20224;-75
2021/03/19 09:06:12;;;;;;;1.00;1.00;;;;;;;-0.20;43.72;102947.03;6315394;28;20184;-78
2021/03/19 09:09:39;;;;;;;1.20;1.20;;;;;;;-0.10;45.10;102969.63;6315709;28;20270;-75
2021/03/19 09:13:14;;;;;;;10.30;1.20;;;;;;;-0.01;44.33;102987.84;6314458;28;20551;-77
2021/03/19 09:16:49;;;;;;;3.83;1.23;;;;;;;-0.18;43.35;102953.13;6298109;28;20464;-76
2021/03/19 09:20:00;;;;;;;0.97;0.97;;;;;;;-0.27;44.36;102956.41;6322524;28;20348;-75
2021/03/19 09:23:18;;;;;;;2.13;1.00;;;;;;;-0.18;45.77;102977.28;6314092;28;20375;-76
2021/03/19 09:26:41;;;;;;;2.80;1.20;;;;;;;-0.16;46.77;102972.72;6315394;28;20315;-74
2021/03/19 09:29:45;;;;;;;10.60;1.20;;;;;;;-0.24;47.31;102975.00;6314944;28;20196;-75
2021/03/19 09:32:50;;;;;;;0.97;0.97;;;;;;;-0.25;46.47;102972.41;6315060;28;20215;-75
2021/03/19 09:35:54;;;;;;;1.17;1.17;;;;;;;-0.23;47.72;102965.97;6315358;28;20185;-76
2021/03/19 09:38:58;;;;;;;2.00;1.37;;;;;;;-0.07;47.34;102953.34;6313898;28;20218;-76
2021/03/19 09:42:02;;;;;;;1.20;1.10;;;;;;;0.03;46.93;102966.19;6314000;28;20495;-75
2021/03/19 09:45:22;;;;;;;12.77;1.40;;;;;;;0.03;46.39;102982.28;6315108;28;20251;-75
2021/03/19 09:48:33;;;;;;;1.70;1.30;;;;;;;-0.11;44.95;102957.19;6314181;28;20454;-76
2021/03/19 09:51:41;;;;;;;3.23;1.03;;;;;;;-0.15;45.85;102931.50;6314768;28;20191;-75
2021/03/19 09:54:44;;;;;;;1.37;1.27;;;;;;;0.09;45.79;102963.09;6314710;28;20202;-77
2021/03/19 09:57:50;;;;;;;1.80;1.10;;;;;;;0.02;45.39;102981.44;6313927;28;20220;-76
2021/03/19 10:00:57;;;;;;;5.83;1.00;;;;;;;0.11;45.05;102979.94;6314290;28;20185;-75
2021/03/19 10:04:05;;;;;;;1.30;1.30;;;;;;;0.11;44.59;102964.72;6313989;28;20235;-77
2021/03/19 10:07:14;;;;;;;1.53;1.50;;;;;;;0.10;44.58;102978.25;6312985;28;20184;-76
2021/03/19 10:10:26;;;;;;;1.47;1.43;;;;;;;0.11;45.17;102971.91;6313099;28;20410;-76
2021/03/19 10:13:34;;;;;;;2.00;1.53;;;;;;;0.29;45.98;102979.66;6312463;28;20434;-76
2021/03/19 10:16:38;;;;;;;7.50;4.23;;;;;;;0.21;46.28;102981.09;6312852;28;20186;-76
2021/03/19 10:19:45;;;;;;;8.37;4.07;;;;;;;0.22;45.72;102994.44;6312710;28;20231;-76
2021/03/19 10:22:51;;;;;;;7.70;4.00;;;;;;;0.09;44.98;102987.25;6312792;28;20493;-76
2021/03/19 10:26:06;;;;;;;2.77;2.57;;;;;;;0.11;44.67;102974.59;6314390;28;20362;-76
2021/03/19 10:29:17;;;;;;;1.87;1.80;;;;;;;0.10;45.39;102946.03;6323524;28;20191;-75
2021/03/19 10:32:24;;;;;;;6.07;1.47;;;;;;;0.26;43.46;102978.97;6313828;28;20184;-76
2021/03/19 10:35:32;;;;;;;3.17;1.30;;;;;;;0.27;43.38;102972.66;6312349;28;20186;-75
2021/03/19 10:38:41;;;;;;;3.00;1.80;;;;;;;0.13;43.01;102927.06;6313667;28;20212;-76
2021/03/19 10:41:49;;;;;;;2.90;1.13;;;;;;;0.28;42.65;102951.09;6312268;28;20184;-75
2021/03/19 10:45:04;;;;;;;2.33;1.40;;;;;;;0.43;41.84;102963.53;6313013;28;20380;-76
2021/03/19 10:48:21;;;;;;;3.50;1.50;;;;;;;0.45;41.65;102955.34;6312418;28;20250;-75
2021/03/19 10:51:41;;;;;;;2.20;2.00;;;;;;;0.57;41.70;102958.09;6313207;28;20186;-75
2021/03/19 10:54:46;;;;;;;3.10;1.80;;;;;;;0.32;39.23;102914.13;6312051;28;20238;-75
2021/03/19 10:57:55;;;;;;;1.33;1.33;;;;;;;0.68;40.02;102949.31;6311935;28;20186;-76
2021/03/19 11:00:59;;;;;;;1.33;1.33;;;;;;;0.87;38.82;102949.81;6295009;28;20208;-75
2021/03/19 11:04:24;;;;;;;2.43;1.07;;;;;;;0.81;39.85;102960.09;6312375;28;20458;-75
2021/03/19 11:07:38;;;;;;;2.83;1.03;;;;;;;0.75;40.27;102950.63;6312879;28;20186;-75
2021/03/19 11:10:52;;;;;;;3.80;1.20;;;;;;;0.74;41.40;102932.81;6311587;28;20414;-75
2021/03/19 11:14:02;;;;;;;7.43;1.70;;;;;;;0.95;41.60;102936.69;6294226;28;20202;-75
2021/03/19 11:17:18;;;;;;;3.10;1.20;;;;;;;1.09;41.38;102938.47;6311393;28;20488;-75
2021/03/19 11:20:34;;;;;;;7.50;1.40;;;;;;;1.15;40.59;102949.69;6311966;28;20240;-76
2021/03/19 11:23:39;;;;;;;1.40;1.37;;;;;;;0.96;40.89;102916.94;6311974;28;20194;-75
2021/03/19 11:26:43;;;;;;;2.13;1.23;;;;;;;1.00;41.58;102926.50;6312340;28;20186;-75
2021/03/19 11:29:47;;;;;;;1.33;1.33;;;;;;;0.99;40.75;102943.63;6294292;28;20216;-76
2021/03/19 11:33:01;;;;;;;1.67;1.33;;;;;;;0.96;40.20;102948.31;6313565;28;20284;-76
2021/03/19 11:36:13;;;;;;;1.10;1.10;;;;;;;1.02;40.36;102938.03;6326176;28;20221;-75
2021/03/19 11:39:33;;;;;;;1.53;1.20;;;;;;;0.96;40.62;102943.81;6312418;28;20255;-77
2021/03/19 11:42:43;;;;;;;3.80;1.50;;;;;;;0.86;41.01;102925.72;6311163;28;20234;-75
2021/03/19 11:45:48;;;;;;;8.70;1.73;;;;;;;1.00;40.69;102933.72;6310993;28;20185;-75
2021/03/19 11:49:04;;;;;;;2.00;1.50;;;;;;;0.89;40.93;102904.00;6312130;28;20295;-76
2021/03/19 11:52:21;;;;;;;1.43;1.30;;;;;;;1.18;40.99;102938.69;6312012;28;20185;-75
2021/03/19 11:55:30;;;;;;;1.13;1.13;;;;;;;1.30;40.64;102925.38;6311842;28;20190;-76
2021/03/19 11:58:36;;;;;;;1.10;1.10;;;;;;;1.42;40.09;102951.41;6311042;28;20284;-75
2021/03/19 12:01:39;;;;;;;4.13;1.43;;;;;;;1.24;40.25;102930.19;6311005;28;20254;-75
2021/03/19 12:05:01;;;;;;;1.10;1.10;;;;;;;1.26;40.50;102936.31;6310714;28;20260;-76
2021/03/19 12:08:19;;;;;;;6.57;1.30;;;;;;;1.25;40.88;102923.88;6285745;28;20215;-77
2021/03/19 12:11:26;;;;;;;1.43;1.33;;;;;;;1.37;39.16;102937.41;6311151;28;20186;-76
2021/03/19 12:14:33;;;;;;;2.60;1.20;;;;;;;1.16;38.56;102912.88;6311569;28;20187;-76
2021/03/19 12:17:41;;;;;;;4.40;1.10;;;;;;;1.28;39.44;102937.06;6311602;28;20218;-75
2021/03/19 12:20:46;;;;;;;1.20;1.20;;;;;;;1.21;40.58;102937.59;6310505;28;20408;-76
2021/03/19 12:23:49;;;;;;;0.90;0.90;;;;;;;1.20;41.28;102942.16;6311292;28;20201;-76
2021/03/19 12:26:52;;;;;;;1.00;1.00;;;;;;;1.10;39.98;102919.56;6311314;28;20226;-76
2021/03/19 12:30:02;;;;;;;1.53;1.10;;;;;;;1.16;40.31;102951.38;6310430;28;20420;-75
2021/03/19 12:33:09;;;;;;;1.30;1.30;;;;;;;1.03;40.62;102938.88;6310599;28;20187;-75
2021/03/19 12:36:15;;;;;;;1.30;1.20;;;;;;;1.05;40.84;102929.72;6310986;28;20239;-75
2021/03/19 12:39:21;;;;;;;1.10;1.10;;;;;;;1.13;40.65;102919.31;6310429;28;20512;-75
2021/03/19 12:42:37;;;;;;;3.03;1.10;;;;;;;1.25;41.42;102923.88;6317586;28;20198;-75
2021/03/19 12:45:42;;;;;;;1.90;0.90;;;;;;;1.01;41.54;102882.53;6317135;28;20204;-76
2021/03/19 12:48:50;;;;;;;1.53;1.20;;;;;;;1.45;42.03;102918.91;6310804;28;20228;-75
2021/03/19 12:51:55;;;;;;;3.13;1.20;;;;;;;1.24;41.19;102906.00;6311041;28;20198;-75
2021/03/19 12:55:00;;;;;;;1.00;0.97;;;;;;;1.22;41.38;102897.19;6310799;28;20185;-75
2021/03/19 12:58:08;;;;;;;4.23;1.10;;;;;;;1.40;41.96;102910.31;6310825;28;20187;-76
2021/03/19 13:01:14;;;;;;;1.20;1.20;;;;;;;1.18;42.24;102917.16;6293178;28;20278;-76
2021/03/19 13:04:37;;;;;;;1.13;1.10;;;;;;;1.03;41.71;102912.84;6309671;28;20513;-76
2021/03/19 13:07:56;;;;;;;3.13;1.20;;;;;;;0.60;41.73;102849.56;6314437;28;20381;-75
2021/03/19 13:10:59;;;;;;;3.23;1.40;;;;;;;1.11;40.88;102907.81;6315277;28;20190;-75
2021/03/19 13:14:06;;;;;;;1.10;1.10;;;;;;;1.08;41.17;102905.31;6297748;28;20187;-76
2021/03/19 13:17:16;;;;;;;1.20;1.20;;;;;;;1.04;41.53;102887.69;6315230;28;20224;-76
2021/03/19 13:20:40;;;;;;;2.90;1.23;;;;;;;1.17;41.90;102904.72;6314201;28;20226;-75
2021/03/19 13:24:03;;;;;;;1.30;1.20;;;;;;;1.36;41.72;102885.47;6315320;28;20224;-75
2021/03/19 13:27:11;;;;;;;1.73;1.40;;;;;;;1.54;41.69;102880.59;6314085;28;20374;-75
2021/03/19 13:30:28;;;;;;;1.77;1.20;;;;;;;1.62;41.38;102859.38;6315037;28;20199;-76
2021/03/19 13:33:51;;;;;;;1.30;1.20;;;;;;;1.84;41.30;102863.13;6315124;28;20187;-75
2021/03/19 13:36:58;;;;;;;1.07;1.03;;;;;;;1.81;40.94;102874.09;6314023;28;20378;-75
2021/03/19 13:40:06;;;;;;;1.20;1.20;;;;;;;1.54;41.41;102876.06;6314808;28;20246;-76
2021/03/19 13:43:23;;;;;;;4.60;1.03;;;;;;;1.40;42.57;102870.81;6314048;28;20469;-76
2021/03/19 13:46:29;;;;;;;1.00;1.00;;;;;;;1.39;43.03;102877.16;6315069;28;20264;-76
2021/03/19 13:49:42;;;;;;;1.20;1.10;;;;;;;1.03;43.84;102880.59;6316399;28;20190;-76
2021/03/19 13:52:58;;;;;;;2.50;1.00;;;;;;;1.10;44.26;102876.53;6307683;28;20395;-78
2021/03/19 13:56:06;;;;;;;1.60;1.50;;;;;;;1.31;45.40;102884.06;6314582;28;20209;-76
2021/03/19 13:59:22;;;;;;;1.30;1.20;;;;;;;2.21;43.95;102881.97;6314466;28;20215;-75
2021/03/19 14:02:33;;;;;;;1.00;1.00;;;;;;;2.04;44.03;102866.16;6314517;28;20234;-76
2021/03/19 14:05:57;;;;;;;1.47;1.00;;;;;;;1.84;44.20;102854.19;6263908;28;20274;-76
2021/03/19 14:09:20;;;;;;;1.63;1.30;;;;;;;2.08;43.90;102855.03;6263621;28;20241;-76
2021/03/19 14:12:42;;;;;;;1.37;1.03;;;;;;;1.59;43.30;102825.47;6264598;28;20224;-76
2021/03/19 14:15:47;;;;;;;2.40;1.20;;;;;;;1.66;43.78;102842.06;6263872;28;20195;-77
2021/03/19 14:19:01;;;;;;;1.10;1.10;;;;;;;1.50;43.11;102853.06;6262954;28;20243;-76
2021/03/19 14:22:16;;;;;;;30.20;1.90;;;;;;;1.36;43.79;102849.63;6263320;28;20555;-75
2021/03/19 14:25:25;;;;;;;1.13;1.13;;;;;;;1.17;43.90;102797.16;6265207;28;20235;-76
2021/03/19 14:28:50;;;;;;;1.00;1.00;;;;;;;1.19;44.53;102832.84;6264419;28;20200;-75
2021/03/19 14:31:59;;;;;;;1.63;1.40;;;;;;;1.25;44.56;102827.06;6266122;28;20188;-76
2021/03/19 14:35:07;;;;;;;5.43;1.83;;;;;;;1.28;44.76;102837.56;6266774;28;20401;-75
2021/03/19 14:38:28;;;;;;;1.63;1.60;;;;;;;1.22;45.82;102832.66;6266952;28;20189;-75
2021/03/19 14:41:32;;;;;;;1.73;1.67;;;;;;;1.10;45.76;102838.91;6265589;28;20399;-75
2021/03/19 14:44:41;;;;;;;4.13;2.97;;;;;;;1.04;46.15;102839.31;6265563;28;20198;-75
2021/03/19 14:47:44;;;;;;;3.90;2.57;;;;;;;1.10;45.04;102843.41;6265875;28;20195;-74
2021/03/19 14:50:57;;;;;;;1.60;1.50;;;;;;;1.04;44.53;102833.94;6263636;28;20192;-74
2021/03/19 14:54:10;;;;;;;2.33;2.13;;;;;;;1.06;44.86;102836.50;6263531;28;20254;-75
2021/03/19 14:57:17;;;;;;;5.30;3.33;;;;;;;1.03;44.51;102816.06;6263004;28;20380;-75